sensor_id;sensor_type;location;lat;lon;timestamp;pressure;altitude;pressure_sealevel;temperature;humidity
68433;BME280;55412;51.350;17.056;2024-02-23T00:00:41;97886.56;;;8.44;79.32
68433;BME280;55412;51.350;17.056;2024-02-23T00:03:07;97878.91;;;8.41;79.25
68433;BME280;55412;51.350;17.056;2024-02-23T00:05:33;97878.91;;;8.41;78.96
68433;BME280;55412;51.350;17.056;2024-02-23T00:07:59;97877.31;;;8.37;79.42
68433;BME280;55412;51.350;17.056;2024-02-23T00:10:25;97874.78;;;8.35;79.52
68433;BME280;55412;51.350;17.056;2024-02-23T00:12:51;97879.75;;;8.41;79.27
68433;BME280;55412;51.350;17.056;2024-02-23T00:15:17;97874.59;;;8.41;79.61
68433;BME280;55412;51.350;17.056;2024-02-23T00:17:42;97878.03;;;8.42;79.90
68433;BME280;55412;51.350;17.056;2024-02-23T00:20:09;97886.63;;;8.42;79.93
68433;BME280;55412;51.350;17.056;2024-02-23T00:22:38;97886.56;;;8.44;79.73
68433;BME280;55412;51.350;17.056;2024-02-23T00:25:04;97889.06;;;8.47;79.61
68433;BME280;55412;51.350;17.056;2024-02-23T00:27:30;97891.53;;;8.50;79.68
68433;BME280;55412;51.350;17.056;2024-02-23T00:29:55;97896.66;;;8.51;79.60
68433;BME280;55412;51.350;17.056;2024-02-23T00:32:21;97901.78;;;8.53;79.62
68433;BME280;55412;51.350;17.056;2024-02-23T00:34:47;97888.88;;;8.53;79.79
68433;BME280;55412;51.350;17.056;2024-02-23T00:37:13;97894.75;;;8.56;79.67
68433;BME280;55412;51.350;17.056;2024-02-23T00:39:38;97893.91;;;8.56;79.89
68433;BME280;55412;51.350;17.056;2024-02-23T00:42:04;97895.59;;;8.57;79.80
68433;BME280;55412;51.350;17.056;2024-02-23T00:44:30;97901.56;;;8.59;79.72
68433;BME280;55412;51.350;17.056;2024-02-23T00:46:56;97907.53;;;8.61;80.10
68433;BME280;55412;51.350;17.056;2024-02-23T00:49:26;97900.63;;;8.62;79.96
68433;BME280;55412;51.350;17.056;2024-02-23T00:51:52;97902.38;;;8.61;79.99
68433;BME280;55412;51.350;17.056;2024-02-23T00:54:18;97890.28;;;8.62;79.82
68433;BME280;55412;51.350;17.056;2024-02-23T00:56:44;97887.75;;;8.60;79.92
68433;BME280;55412;51.350;17.056;2024-02-23T00:59:10;97885.97;;;8.62;80.55
68433;BME280;55412;51.350;17.056;2024-02-23T01:01:36;97886.75;;;8.64;80.09
68433;BME280;55412;51.350;17.056;2024-02-23T01:04:01;97875.63;;;8.62;80.27
68433;BME280;55412;51.350;17.056;2024-02-23T01:06:27;97873.81;;;8.64;80.43
68433;BME280;55412;51.350;17.056;2024-02-23T01:08:53;97871.22;;;8.64;80.42
68433;BME280;55412;51.350;17.056;2024-02-23T01:11:19;97879.69;;;8.69;79.98
68433;BME280;55412;51.350;17.056;2024-02-23T01:13:45;97874.56;;;8.68;80.26
68433;BME280;55412;51.350;17.056;2024-02-23T01:16:10;97876.13;;;8.72;80.29
68433;BME280;55412;51.350;17.056;2024-02-23T01:18:36;97866.63;;;8.72;80.39
68433;BME280;55412;51.350;17.056;2024-02-23T01:21:02;97862.22;;;8.76;80.50
68433;BME280;55412;51.350;17.056;2024-02-23T01:23:28;97863.91;;;8.77;80.45
68433;BME280;55412;51.350;17.056;2024-02-23T01:25:53;97850.06;;;8.78;80.57
68433;BME280;55412;51.350;17.056;2024-02-23T01:28:19;97843.00;;;8.83;80.38
68433;BME280;55412;51.350;17.056;2024-02-23T01:30:45;97848.06;;;8.86;80.41
68433;BME280;55412;51.350;17.056;2024-02-23T01:33:10;97853.97;;;8.90;80.26
68433;BME280;55412;51.350;17.056;2024-02-23T01:35:36;97845.25;;;8.92;80.70
68433;BME280;55412;51.350;17.056;2024-02-23T01:38:02;97844.34;;;8.93;80.01
68433;BME280;55412;51.350;17.056;2024-02-23T01:40:28;97853.72;;;8.96;80.18
68433;BME280;55412;51.350;17.056;2024-02-23T01:43:04;97851.13;;;8.97;80.20
68433;BME280;55412;51.350;17.056;2024-02-23T01:45:30;97834.75;;;8.97;79.97
68433;BME280;55412;51.350;17.056;2024-02-23T01:47:57;97816.66;;;8.95;80.15
68433;BME280;55412;51.350;17.056;2024-02-23T01:50:24;97821.91;;;8.94;79.85
68433;BME280;55412;51.350;17.056;2024-02-23T01:52:50;97821.13;;;8.92;80.19
68433;BME280;55412;51.350;17.056;2024-02-23T01:55:19;97837.44;;;8.94;80.39
68433;BME280;55412;51.350;17.056;2024-02-23T01:57:46;97836.53;;;8.95;80.24
68433;BME280;55412;51.350;17.056;2024-02-23T02:00:15;97846.88;;;8.95;80.20
68433;BME280;55412;51.350;17.056;2024-02-23T02:02:43;97858.03;;;8.97;80.30
68433;BME280;55412;51.350;17.056;2024-02-23T02:05:09;97860.63;;;8.97;80.55
68433;BME280;55412;51.350;17.056;2024-02-23T02:07:35;97846.78;;;8.98;80.41
68433;BME280;55412;51.350;17.056;2024-02-23T02:10:01;97862.25;;;8.99;80.39
68433;BME280;55412;51.350;17.056;2024-02-23T02:12:29;97870.00;;;8.99;80.54
68433;BME280;55412;51.350;17.056;2024-02-23T02:14:55;97872.53;;;9.01;80.54
68433;BME280;55412;51.350;17.056;2024-02-23T02:17:21;97875.97;;;9.01;80.52
68433;BME280;55412;51.350;17.056;2024-02-23T02:19:50;97877.69;;;9.01;80.26
68433;BME280;55412;51.350;17.056;2024-02-23T02:22:15;97875.31;;;8.95;80.43
68433;BME280;55412;51.350;17.056;2024-02-23T02:24:41;97882.31;;;8.93;80.29
68433;BME280;55412;51.350;17.056;2024-02-23T02:27:09;97887.47;;;8.93;80.36
68433;BME280;55412;51.350;17.056;2024-02-23T02:29:35;97898.72;;;8.92;80.46
68433;BME280;55412;51.350;17.056;2024-02-23T02:32:01;97890.22;;;8.88;80.26
68433;BME280;55412;51.350;17.056;2024-02-23T02:34:28;97902.31;;;8.88;80.52
68433;BME280;55412;51.350;17.056;2024-02-23T02:36:54;97899.78;;;8.86;80.26
68433;BME280;55412;51.350;17.056;2024-02-23T02:39:20;97897.25;;;8.84;80.37
68433;BME280;55412;51.350;17.056;2024-02-23T02:41:47;97877.63;;;8.79;80.60
68433;BME280;55412;51.350;17.056;2024-02-23T02:44:14;97896.50;;;8.81;80.46
68433;BME280;55412;51.350;17.056;2024-02-23T02:46:43;97902.53;;;8.81;80.55
68433;BME280;55412;51.350;17.056;2024-02-23T02:49:08;97904.22;;;8.82;80.56
68433;BME280;55412;51.350;17.056;2024-02-23T02:51:34;97897.38;;;8.81;80.74
68433;BME280;55412;51.350;17.056;2024-02-23T02:54:00;97906.81;;;8.82;80.66
68433;BME280;55412;51.350;17.056;2024-02-23T02:56:26;97905.06;;;8.83;80.85
68433;BME280;55412;51.350;17.056;2024-02-23T02:58:51;97908.50;;;8.83;80.67
68433;BME280;55412;51.350;17.056;2024-02-23T03:01:17;97911.03;;;8.85;80.58
68433;BME280;55412;51.350;17.056;2024-02-23T03:03:43;97910.13;;;8.86;80.63
68433;BME280;55412;51.350;17.056;2024-02-23T03:06:08;97916.13;;;8.86;80.65
68433;BME280;55412;51.350;17.056;2024-02-23T03:08:34;97907.47;;;8.88;80.57
68433;BME280;55412;51.350;17.056;2024-02-23T03:11:00;97907.44;;;8.89;80.36
68433;BME280;55412;51.350;17.056;2024-02-23T03:13:26;97912.63;;;8.89;80.65
68433;BME280;55412;51.350;17.056;2024-02-23T03:15:52;97925.50;;;8.91;80.23
68433;BME280;55412;51.350;17.056;2024-02-23T03:18:17;97923.81;;;8.90;80.37
68433;BME280;55412;51.350;17.056;2024-02-23T03:20:43;97930.63;;;8.92;80.67
68433;BME280;55412;51.350;17.056;2024-02-23T03:23:11;97942.59;;;8.95;80.65
68433;BME280;55412;51.350;17.056;2024-02-23T03:25:37;97948.56;;;8.97;80.48
68433;BME280;55412;51.350;17.056;2024-02-23T03:28:02;97957.06;;;9.00;80.55
68433;BME280;55412;51.350;17.056;2024-02-23T03:30:28;97955.38;;;8.99;80.64
68433;BME280;55412;51.350;17.056;2024-02-23T03:32:54;97965.59;;;9.02;80.57
68433;BME280;55412;51.350;17.056;2024-02-23T03:35:20;97972.44;;;9.05;80.52
68433;BME280;55412;51.350;17.056;2024-02-23T03:37:45;97975.09;;;9.03;80.40
68433;BME280;55412;51.350;17.056;2024-02-23T03:40:11;97967.31;;;9.03;80.68
68433;BME280;55412;51.350;17.056;2024-02-23T03:42:38;97980.25;;;9.03;80.23
68433;BME280;55412;51.350;17.056;2024-02-23T03:45:05;97976.78;;;9.03;80.05
68433;BME280;55412;51.350;17.056;2024-02-23T03:47:31;97977.75;;;9.00;80.60
68433;BME280;55412;51.350;17.056;2024-02-23T03:49:56;97986.34;;;9.01;80.12
68433;BME280;55412;51.350;17.056;2024-02-23T03:52:22;97992.56;;;8.97;80.15
68433;BME280;55412;51.350;17.056;2024-02-23T03:54:48;98001.16;;;8.97;80.34
68433;BME280;55412;51.350;17.056;2024-02-23T03:57:14;97998.66;;;8.94;80.30
68433;BME280;55412;51.350;17.056;2024-02-23T03:59:54;98010.75;;;8.94;80.25
68433;BME280;55412;51.350;17.056;2024-02-23T04:02:20;98016.03;;;8.91;80.43
68433;BME280;55412;51.350;17.056;2024-02-23T04:04:46;98007.44;;;8.90;80.62
68433;BME280;55412;51.350;17.056;2024-02-23T04:07:11;98022.13;;;8.88;80.29
68433;BME280;55412;51.350;17.056;2024-02-23T04:09:37;98015.34;;;8.85;80.49
68433;BME280;55412;51.350;17.056;2024-02-23T04:12:03;98021.41;;;8.84;80.49
68433;BME280;55412;51.350;17.056;2024-02-23T04:14:29;98033.38;;;8.87;80.42
68433;BME280;55412;51.350;17.056;2024-02-23T04:16:55;98031.69;;;8.86;80.18
68433;BME280;55412;51.350;17.056;2024-02-23T04:19:20;98036.03;;;8.85;80.36
68433;BME280;55412;51.350;17.056;2024-02-23T04:21:46;98033.44;;;8.85;80.54
68433;BME280;55412;51.350;17.056;2024-02-23T04:24:12;98033.44;;;8.85;80.81
68433;BME280;55412;51.350;17.056;2024-02-23T04:26:37;98033.44;;;8.85;80.28
68433;BME280;55412;51.350;17.056;2024-02-23T04:29:03;98036.91;;;8.84;80.28
68433;BME280;55412;51.350;17.056;2024-02-23T04:31:29;98046.38;;;8.85;80.43
68433;BME280;55412;51.350;17.056;2024-02-23T04:33:55;98041.34;;;8.81;80.62
68433;BME280;55412;51.350;17.056;2024-02-23T04:36:21;98051.59;;;8.84;80.23
68433;BME280;55412;51.350;17.056;2024-02-23T04:38:46;98049.00;;;8.84;80.41
68433;BME280;55412;51.350;17.056;2024-02-23T04:41:12;98054.13;;;8.85;80.60
68433;BME280;55412;51.350;17.056;2024-02-23T04:43:38;98042.22;;;8.81;80.46
68433;BME280;55412;51.350;17.056;2024-02-23T04:46:03;98029.94;;;8.86;80.41
68433;BME280;55412;51.350;17.056;2024-02-23T04:48:29;98049.72;;;8.89;80.36
68433;BME280;55412;51.350;17.056;2024-02-23T04:50:57;98054.13;;;8.85;80.39
68433;BME280;55412;51.350;17.056;2024-02-23T04:53:23;98057.38;;;8.92;80.35
68433;BME280;55412;51.350;17.056;2024-02-23T04:55:48;98061.59;;;8.95;80.45
68433;BME280;55412;51.350;17.056;2024-02-23T04:58:14;98054.78;;;8.92;80.30
68433;BME280;55412;51.350;17.056;2024-02-23T05:00:40;98068.38;;;8.99;80.23
68433;BME280;55412;51.350;17.056;2024-02-23T05:03:06;98071.78;;;8.99;80.30
68433;BME280;55412;51.350;17.056;2024-02-23T05:05:32;98089.84;;;9.01;80.55
68433;BME280;55412;51.350;17.056;2024-02-23T05:07:57;98095.13;;;8.98;80.59
68433;BME280;55412;51.350;17.056;2024-02-23T05:10:23;98087.50;;;8.93;80.11
68433;BME280;55412;51.350;17.056;2024-02-23T05:12:50;98100.19;;;9.01;79.97
68433;BME280;55412;51.350;17.056;2024-02-23T05:15:16;98109.66;;;9.02;80.47
68433;BME280;55412;51.350;17.056;2024-02-23T05:17:42;98106.28;;;9.00;80.33
68433;BME280;55412;51.350;17.056;2024-02-23T05:20:08;98109.63;;;9.03;80.35
68433;BME280;55412;51.350;17.056;2024-02-23T05:22:36;98113.25;;;8.98;80.14
68433;BME280;55412;51.350;17.056;2024-02-23T05:25:02;98120.91;;;9.01;80.15
68433;BME280;55412;51.350;17.056;2024-02-23T05:27:30;98124.50;;;8.97;80.20
68433;BME280;55412;51.350;17.056;2024-02-23T05:29:56;98135.56;;;9.00;80.21
68433;BME280;55412;51.350;17.056;2024-02-23T05:32:21;98135.63;;;8.99;80.40
68433;BME280;55412;51.350;17.056;2024-02-23T05:34:47;98147.84;;;8.94;80.13
68433;BME280;55412;51.350;17.056;2024-02-23T05:37:17;98148.75;;;8.93;80.03
68433;BME280;55412;51.350;17.056;2024-02-23T05:39:42;98157.47;;;8.90;80.47
68433;BME280;55412;51.350;17.056;2024-02-23T05:42:10;98164.44;;;8.86;80.33
68433;BME280;55412;51.350;17.056;2024-02-23T05:44:36;98167.09;;;8.85;80.08
68433;BME280;55412;51.350;17.056;2024-02-23T05:47:01;98177.53;;;8.82;80.25
68433;BME280;55412;51.350;17.056;2024-02-23T05:49:27;98175.03;;;8.79;80.09
68433;BME280;55412;51.350;17.056;2024-02-23T05:51:53;98167.38;;;8.76;80.41
68433;BME280;55412;51.350;17.056;2024-02-23T05:54:19;98180.31;;;8.76;80.41
68433;BME280;55412;51.350;17.056;2024-02-23T05:56:47;98188.06;;;8.76;80.26
68433;BME280;55412;51.350;17.056;2024-02-23T05:59:14;98188.97;;;8.73;80.66
68433;BME280;55412;51.350;17.056;2024-02-23T06:01:39;98197.56;;;8.75;80.57
68433;BME280;55412;51.350;17.056;2024-02-23T06:04:05;98194.97;;;8.75;80.58
68433;BME280;55412;51.350;17.056;2024-02-23T06:06:31;98196.75;;;8.73;80.19
68433;BME280;55412;51.350;17.056;2024-02-23T06:08:56;98207.00;;;8.76;80.41
68433;BME280;55412;51.350;17.056;2024-02-23T06:11:22;98222.53;;;8.76;80.14
68433;BME280;55412;51.350;17.056;2024-02-23T06:13:48;98227.72;;;8.76;80.42
68433;BME280;55412;51.350;17.056;2024-02-23T06:16:13;98227.72;;;8.76;80.58
68433;BME280;55412;51.350;17.056;2024-02-23T06:18:39;98235.31;;;8.81;80.28
68433;BME280;55412;51.350;17.056;2024-02-23T06:21:16;98244.69;;;8.85;80.09
68433;BME280;55412;51.350;17.056;2024-02-23T06:23:44;98231.81;;;8.83;80.65
68433;BME280;55412;51.350;17.056;2024-02-23T06:26:10;98251.44;;;8.91;79.90
68433;BME280;55412;51.350;17.056;2024-02-23T06:28:36;98248.78;;;8.92;80.23
68433;BME280;55412;51.350;17.056;2024-02-23T06:31:05;98257.41;;;8.93;80.07
68433;BME280;55412;51.350;17.056;2024-02-23T06:33:31;98256.44;;;8.95;80.14
68433;BME280;55412;51.350;17.056;2024-02-23T06:35:57;98264.19;;;8.97;80.11
68433;BME280;55412;51.350;17.056;2024-02-23T06:38:22;98268.41;;;8.99;79.59
68433;BME280;55412;51.350;17.056;2024-02-23T06:40:48;98268.38;;;9.01;79.84
68433;BME280;55412;51.350;17.056;2024-02-23T06:43:14;98277.81;;;9.03;80.09
68433;BME280;55412;51.350;17.056;2024-02-23T06:45:39;98280.28;;;9.06;80.17
68433;BME280;55412;51.350;17.056;2024-02-23T06:48:06;98265.94;;;8.96;80.05
68433;BME280;55412;51.350;17.056;2024-02-23T06:50:32;98293.13;;;9.09;79.99
68433;BME280;55412;51.350;17.056;2024-02-23T06:52:57;98295.69;;;9.11;80.03
68433;BME280;55412;51.350;17.056;2024-02-23T06:55:23;98306.03;;;9.11;79.83
68433;BME280;55412;51.350;17.056;2024-02-23T06:57:49;98307.72;;;9.12;79.74
68433;BME280;55412;51.350;17.056;2024-02-23T07:00:15;98303.47;;;9.09;79.85
68433;BME280;55412;51.350;17.056;2024-02-23T07:02:41;98314.44;;;9.19;79.83
68433;BME280;55412;51.350;17.056;2024-02-23T07:05:07;98300.81;;;9.12;79.91
68433;BME280;55412;51.350;17.056;2024-02-23T07:07:34;98309.16;;;9.22;79.40
68433;BME280;55412;51.350;17.056;2024-02-23T07:10:00;98315.13;;;9.24;79.72
68433;BME280;55412;51.350;17.056;2024-02-23T07:12:26;98323.59;;;9.29;79.77
68433;BME280;55412;51.350;17.056;2024-02-23T07:14:55;98320.91;;;9.32;79.54
68433;BME280;55412;51.350;17.056;2024-02-23T07:17:21;98322.56;;;9.35;78.95
68433;BME280;55412;51.350;17.056;2024-02-23T07:19:46;98334.50;;;9.40;79.45
68433;BME280;55412;51.350;17.056;2024-02-23T07:22:13;98337.88;;;9.43;79.35
68433;BME280;55412;51.350;17.056;2024-02-23T07:24:42;98341.25;;;9.45;78.97
68433;BME280;55412;51.350;17.056;2024-02-23T07:27:08;98336.84;;;9.48;79.18
68433;BME280;55412;51.350;17.056;2024-02-23T07:29:34;98341.03;;;9.52;79.05
68433;BME280;55412;51.350;17.056;2024-02-23T07:31:59;98328.03;;;9.54;79.36
68433;BME280;55412;51.350;17.056;2024-02-23T07:34:25;98346.94;;;9.57;78.87
68433;BME280;55412;51.350;17.056;2024-02-23T07:36:54;98345.97;;;9.60;78.95
68433;BME280;55412;51.350;17.056;2024-02-23T07:39:20;98340.78;;;9.60;78.86
68433;BME280;55412;51.350;17.056;2024-02-23T07:41:47;98346.75;;;9.63;79.06
68433;BME280;55412;51.350;17.056;2024-02-23T07:44:13;98356.94;;;9.69;79.03
68433;BME280;55412;51.350;17.056;2024-02-23T07:46:39;98356.88;;;9.71;78.68
68433;BME280;55412;51.350;17.056;2024-02-23T07:49:05;98362.94;;;9.70;79.04
68433;BME280;55412;51.350;17.056;2024-02-23T07:51:35;98362.78;;;9.75;78.89
68433;BME280;55412;51.350;17.056;2024-02-23T07:54:01;98382.44;;;9.82;78.50
68433;BME280;55412;51.350;17.056;2024-02-23T07:56:26;98376.41;;;9.81;78.74
68433;BME280;55412;51.350;17.056;2024-02-23T07:58:53;98402.13;;;9.87;79.07
68433;BME280;55412;51.350;17.056;2024-02-23T08:01:19;98396.75;;;9.93;78.57
68433;BME280;55412;51.350;17.056;2024-02-23T08:03:45;98393.13;;;9.99;78.42
68433;BME280;55412;51.350;17.056;2024-02-23T08:06:10;98399.81;;;10.06;78.37
68433;BME280;55412;51.350;17.056;2024-02-23T08:08:38;98405.63;;;10.13;78.73
68433;BME280;55412;51.350;17.056;2024-02-23T08:11:04;98407.25;;;10.17;77.94
68433;BME280;55412;51.350;17.056;2024-02-23T08:13:30;98407.94;;;10.23;78.01
68433;BME280;55412;51.350;17.056;2024-02-23T08:15:57;98407.63;;;10.33;78.16
68433;BME280;55412;51.350;17.056;2024-02-23T08:18:23;98414.22;;;10.43;78.00
68433;BME280;55412;51.350;17.056;2024-02-23T08:20:49;98419.16;;;10.50;77.73
68433;BME280;55412;51.350;17.056;2024-02-23T08:23:15;98431.03;;;10.58;77.27
68433;BME280;55412;51.350;17.056;2024-02-23T08:25:41;98422.19;;;10.63;77.03
68433;BME280;55412;51.350;17.056;2024-02-23T08:28:06;98427.13;;;10.71;76.16
68433;BME280;55412;51.350;17.056;2024-02-23T08:30:32;98433.00;;;10.76;77.11
68433;BME280;55412;51.350;17.056;2024-02-23T08:32:58;98435.47;;;10.79;75.52
68433;BME280;55412;51.350;17.056;2024-02-23T08:35:25;98425.00;;;10.82;75.56
68433;BME280;55412;51.350;17.056;2024-02-23T08:37:50;98435.34;;;10.84;74.94
68433;BME280;55412;51.350;17.056;2024-02-23T08:40:16;98440.47;;;10.85;75.18
68433;BME280;55412;51.350;17.056;2024-02-23T08:42:42;98445.56;;;10.88;74.45
68433;BME280;55412;51.350;17.056;2024-02-23T08:45:08;98442.00;;;10.91;74.00
68433;BME280;55412;51.350;17.056;2024-02-23T08:47:37;98448.75;;;10.96;73.88
68433;BME280;55412;51.350;17.056;2024-02-23T08:50:03;98459.00;;;10.99;74.11
68433;BME280;55412;51.350;17.056;2024-02-23T08:52:30;98458.09;;;11.00;73.17
68433;BME280;55412;51.350;17.056;2024-02-23T08:54:55;98471.06;;;11.02;73.57
68433;BME280;55412;51.350;17.056;2024-02-23T08:57:21;98473.66;;;11.02;72.95
68433;BME280;55412;51.350;17.056;2024-02-23T08:59:49;98485.69;;;11.04;72.87
68433;BME280;55412;51.350;17.056;2024-02-23T09:02:15;98491.72;;;11.05;72.27
68433;BME280;55412;51.350;17.056;2024-02-23T09:04:40;98493.47;;;11.04;72.32
68433;BME280;55412;51.350;17.056;2024-02-23T09:07:06;98501.25;;;11.04;72.27
68433;BME280;55412;51.350;17.056;2024-02-23T09:09:32;98496.25;;;10.98;71.87
68433;BME280;55412;51.350;17.056;2024-02-23T09:11:58;98511.72;;;11.01;71.66
68433;BME280;55412;51.350;17.056;2024-02-23T09:14:24;98517.72;;;11.03;71.98
68433;BME280;55412;51.350;17.056;2024-02-23T09:16:51;98501.44;;;10.98;71.38
68433;BME280;55412;51.350;17.056;2024-02-23T09:19:17;98529.41;;;11.17;71.55
68433;BME280;55412;51.350;17.056;2024-02-23T09:21:44;98532.78;;;11.19;70.74
68433;BME280;55412;51.350;17.056;2024-02-23T09:24:09;98528.28;;;11.24;70.52
68433;BME280;55412;51.350;17.056;2024-02-23T09:26:35;98533.44;;;11.25;68.90
68433;BME280;55412;51.350;17.056;2024-02-23T09:29:01;98526.44;;;11.27;69.17
68433;BME280;55412;51.350;17.056;2024-02-23T09:31:26;98540.91;;;11.34;69.16
68433;BME280;55412;51.350;17.056;2024-02-23T09:33:56;98545.88;;;11.41;68.91
68433;BME280;55412;51.350;17.056;2024-02-23T09:36:22;98535.22;;;11.48;68.71
68433;BME280;55412;51.350;17.056;2024-02-23T09:38:48;98548.09;;;11.51;68.17
68433;BME280;55412;51.350;17.056;2024-02-23T09:41:23;98550.59;;;11.54;68.13
68433;BME280;55412;51.350;17.056;2024-02-23T09:43:50;98566.19;;;11.54;67.72
68433;BME280;55412;51.350;17.056;2024-02-23T09:46:16;98570.53;;;11.54;68.15
68433;BME280;55412;51.350;17.056;2024-02-23T09:48:47;98572.56;;;11.46;67.50
68433;BME280;55412;51.350;17.056;2024-02-23T09:51:15;98574.97;;;11.50;67.32
68433;BME280;55412;51.350;17.056;2024-02-23T09:53:41;98578.28;;;11.55;67.28
68433;BME280;55412;51.350;17.056;2024-02-23T09:56:09;98581.72;;;11.56;67.31
68433;BME280;55412;51.350;17.056;2024-02-23T09:58:36;98588.59;;;11.57;66.65
68433;BME280;55412;51.350;17.056;2024-02-23T10:01:03;98591.22;;;11.57;66.26
68433;BME280;55412;51.350;17.056;2024-02-23T10:03:29;98591.28;;;11.55;66.29
68433;BME280;55412;51.350;17.056;2024-02-23T10:06:02;98601.47;;;11.60;65.55
68433;BME280;55412;51.350;17.056;2024-02-23T10:08:28;98594.44;;;11.63;65.31
68433;BME280;55412;51.350;17.056;2024-02-23T10:10:55;98601.41;;;11.63;65.13
68433;BME280;55412;51.350;17.056;2024-02-23T10:13:22;98611.59;;;11.69;64.77
68433;BME280;55412;51.350;17.056;2024-02-23T10:15:50;98606.41;;;11.68;65.06
68433;BME280;55412;51.350;17.056;2024-02-23T10:18:16;98605.56;;;11.67;64.33
68433;BME280;55412;51.350;17.056;2024-02-23T10:20:42;98608.00;;;11.72;64.08
68433;BME280;55412;51.350;17.056;2024-02-23T10:23:09;98613.06;;;11.76;63.92
68433;BME280;55412;51.350;17.056;2024-02-23T10:25:35;98618.22;;;11.78;64.34
68433;BME280;55412;51.350;17.056;2024-02-23T10:28:07;98616.44;;;11.78;63.62
68433;BME280;55412;51.350;17.056;2024-02-23T10:30:36;98627.69;;;11.79;62.78
68433;BME280;55412;51.350;17.056;2024-02-23T10:33:05;98630.28;;;11.79;63.21
68433;BME280;55412;51.350;17.056;2024-02-23T10:35:31;98627.75;;;11.77;63.18
68433;BME280;55412;51.350;17.056;2024-02-23T10:38:01;98630.19;;;11.83;63.25
68433;BME280;55412;51.350;17.056;2024-02-23T10:40:30;98637.19;;;11.80;62.68
68433;BME280;55412;51.350;17.056;2024-02-23T10:43:02;98631.16;;;11.79;62.93
68433;BME280;55412;51.350;17.056;2024-02-23T10:45:28;98613.16;;;11.73;63.00
68433;BME280;55412;51.350;17.056;2024-02-23T10:47:55;98632.50;;;11.91;62.77
68433;BME280;55412;51.350;17.056;2024-02-23T10:50:22;98622.13;;;11.91;62.82
68433;BME280;55412;51.350;17.056;2024-02-23T10:52:50;98631.75;;;11.87;62.79
68433;BME280;55412;51.350;17.056;2024-02-23T10:55:16;98629.91;;;11.91;62.59
68433;BME280;55412;51.350;17.056;2024-02-23T10:57:43;98623.69;;;11.95;62.69
68433;BME280;55412;51.350;17.056;2024-02-23T11:00:10;98617.63;;;11.95;62.84
68433;BME280;55412;51.350;17.056;2024-02-23T11:02:40;98622.84;;;11.95;62.98
68433;BME280;55412;51.350;17.056;2024-02-23T11:05:08;98617.00;;;11.88;62.91
68433;BME280;55412;51.350;17.056;2024-02-23T11:07:40;98625.09;;;11.79;63.37
68433;BME280;55412;51.350;17.056;2024-02-23T11:10:07;98633.66;;;11.82;62.68
68433;BME280;55412;51.350;17.056;2024-02-23T11:12:35;98638.84;;;11.82;62.51
68433;BME280;55412;51.350;17.056;2024-02-23T11:15:01;98642.34;;;11.81;62.41
68433;BME280;55412;51.350;17.056;2024-02-23T11:17:30;98638.16;;;11.77;63.08
68433;BME280;55412;51.350;17.056;2024-02-23T11:19:56;98633.88;;;11.75;62.41
68433;BME280;55412;51.350;17.056;2024-02-23T11:22:26;98634.72;;;11.77;62.39
68433;BME280;55412;51.350;17.056;2024-02-23T11:24:53;98638.94;;;11.79;62.38
68433;BME280;55412;51.350;17.056;2024-02-23T11:27:19;98631.19;;;11.78;61.20
68433;BME280;55412;51.350;17.056;2024-02-23T11:29:46;98625.81;;;11.84;60.77
68433;BME280;55412;51.350;17.056;2024-02-23T11:32:14;98627.41;;;11.88;60.96
68433;BME280;55412;51.350;17.056;2024-02-23T11:34:40;98623.81;;;11.92;60.91
68433;BME280;55412;51.350;17.056;2024-02-23T11:37:10;98621.06;;;11.95;60.63
68433;BME280;55412;51.350;17.056;2024-02-23T11:39:39;98611.44;;;11.99;60.66
68433;BME280;55412;51.350;17.056;2024-02-23T11:42:06;98601.81;;;12.01;60.75
68433;BME280;55412;51.350;17.056;2024-02-23T11:44:32;98599.94;;;12.04;60.90
68433;BME280;55412;51.350;17.056;2024-02-23T11:46:58;98606.03;;;12.05;60.90
68433;BME280;55412;51.350;17.056;2024-02-23T11:49:28;98601.69;;;12.04;60.98
68433;BME280;55412;51.350;17.056;2024-02-23T11:51:55;98601.88;;;11.99;62.05
68433;BME280;55412;51.350;17.056;2024-02-23T11:54:21;98608.25;;;11.91;61.28
68433;BME280;55412;51.350;17.056;2024-02-23T11:56:48;98602.22;;;11.90;61.63
68433;BME280;55412;51.350;17.056;2024-02-23T11:59:19;98618.03;;;11.84;61.78
68433;BME280;55412;51.350;17.056;2024-02-23T12:01:46;98629.34;;;11.81;62.81
68433;BME280;55412;51.350;17.056;2024-02-23T12:04:13;98642.50;;;11.77;62.08
68433;BME280;55412;51.350;17.056;2024-02-23T12:06:40;98643.81;;;11.63;61.69
68433;BME280;55412;51.350;17.056;2024-02-23T12:09:06;98654.53;;;11.54;62.48
68433;BME280;55412;51.350;17.056;2024-02-23T12:11:32;98672.97;;;11.47;62.90
68433;BME280;55412;51.350;17.056;2024-02-23T12:13:57;98665.50;;;11.36;62.14
68433;BME280;55412;51.350;17.056;2024-02-23T12:16:23;98686.47;;;11.31;62.95
68433;BME280;55412;51.350;17.056;2024-02-23T12:18:54;98678.94;;;11.22;62.51
68433;BME280;55412;51.350;17.056;2024-02-23T12:21:23;98685.09;;;11.20;62.54
68433;BME280;55412;51.350;17.056;2024-02-23T12:23:50;98689.66;;;11.12;62.75
68433;BME280;55412;51.350;17.056;2024-02-23T12:26:17;98700.25;;;11.05;62.56
68433;BME280;55412;51.350;17.056;2024-02-23T12:28:44;98699.50;;;11.02;62.57
68433;BME280;55412;51.350;17.056;2024-02-23T12:31:10;98699.63;;;10.97;62.57
68433;BME280;55412;51.350;17.056;2024-02-23T12:33:37;98701.31;;;10.98;62.18
68433;BME280;55412;51.350;17.056;2024-02-23T12:36:05;98703.81;;;11.01;62.58
68433;BME280;55412;51.350;17.056;2024-02-23T12:38:31;98708.16;;;11.01;62.87
68433;BME280;55412;51.350;17.056;2024-02-23T12:40:57;98702.88;;;11.04;62.36
68433;BME280;55412;51.350;17.056;2024-02-23T12:43:23;98700.25;;;11.05;62.71
68433;BME280;55412;51.350;17.056;2024-02-23T12:45:53;98708.81;;;11.07;62.65
68433;BME280;55412;51.350;17.056;2024-02-23T12:48:19;98709.72;;;11.06;62.58
68433;BME280;55412;51.350;17.056;2024-02-23T12:50:47;98703.59;;;11.09;62.79
68433;BME280;55412;51.350;17.056;2024-02-23T12:53:39;98712.88;;;11.16;62.68